Time;durP1;ratioP1;P1;durP2;ratioP2;P2;SDS_P1;SDS_P2;PMS_P1;PMS_P2;Temp;Humidity;BMP_temperature;BMP_pressure;BME280_temperature;BME280_humidity;BME280_pressure;Samples;Min_cycle;Max_cycle;Signal;HPM_P1;HPM_P2
2023/02/06 00:00:16;;;;;;;0.60;0.60;;;;;;;0.43;100.00;98862.66;29373;203;63001;-56
2023/02/06 00:00:48;;;;;;;0.60;0.60;;;;;;;0.42;100.00;98859.16;29371;199;64003;-56
2023/02/06 00:01:22;;;;;;;0.60;0.60;;;;;;;0.41;100.00;98857.50;29373;204;63005;-56
2023/02/06 00:01:57;;;;;;;0.70;0.70;;;;;;;0.41;100.00;98849.50;29373;216;63016;-56
2023/02/06 00:02:28;;;;;;;0.60;0.60;;;;;;;0.43;100.00;98847.47;29371;355;64009;-56
2023/02/06 00:03:00;;;;;;;0.60;0.60;;;;;;;0.44;100.00;98849.13;29373;306;63009;-56
2023/02/06 00:03:31;;;;;;;0.62;0.62;;;;;;;0.45;100.00;98849.97;29373;303;63008;-56
2023/02/06 00:04:03;;;;;;;0.60;0.60;;;;;;;0.46;100.00;98849.78;29373;230;63009;-56
2023/02/06 00:04:34;;;;;;;0.60;0.60;;;;;;;0.46;100.00;98852.47;29373;219;63004;-56
2023/02/06 00:05:06;;;;;;;0.60;0.60;;;;;;;0.45;100.00;98850.81;29373;203;63009;-60
2023/02/06 00:05:38;;;;;;;0.60;0.60;;;;;;;0.46;100.00;98852.47;29373;319;63017;-56
2023/02/06 00:06:09;;;;;;;0.73;0.73;;;;;;;0.46;100.00;98852.47;29373;273;63008;-56
2023/02/06 00:06:42;;;;;;;0.60;0.60;;;;;;;0.47;100.00;98848.78;29373;251;63004;-55
2023/02/06 00:07:13;;;;;;;0.60;0.60;;;;;;;0.51;100.00;98849.25;29373;304;63009;-55
2023/02/06 00:07:44;;;;;;;0.60;0.60;;;;;;;0.54;100.00;98855.06;29371;327;64009;-56
2023/02/06 00:08:16;;;;;;;0.60;0.60;;;;;;;0.55;100.00;98859.41;29373;282;63005;-56
2023/02/06 00:08:47;;;;;;;0.60;0.60;;;;;;;0.55;100.00;98851.38;29373;323;63005;-57
2023/02/06 00:09:18;;;;;;;0.60;0.60;;;;;;;0.56;100.00;98862.91;29373;299;63009;-56
2023/02/06 00:09:49;;;;;;;12.82;12.30;;;;;;;0.54;100.00;98855.06;29363;202;65005;-56
2023/02/06 00:10:20;;;;;;;0.60;0.60;;;;;;;0.54;100.00;98860.41;29373;258;63009;-56
2023/02/06 00:10:53;;;;;;;0.60;0.60;;;;;;;0.54;100.00;98857.72;29373;202;63005;-57
2023/02/06 00:11:25;;;;;;;0.60;0.60;;;;;;;0.51;100.00;98855.44;29373;223;63024;-56
2023/02/06 00:11:57;;;;;;;0.60;0.60;;;;;;;0.51;100.00;98858.09;29373;198;63004;-56
2023/02/06 00:12:28;;;;;;;0.60;0.60;;;;;;;0.49;100.00;98851.28;29373;262;63009;-56
2023/02/06 00:13:03;;;;;;;0.60;0.60;;;;;;;0.48;100.00;98854.94;29371;224;64009;-56
2023/02/06 00:13:36;;;;;;;0.60;0.60;;;;;;;0.47;100.00;98848.78;29373;339;63008;-56
2023/02/06 00:14:07;;;;;;;0.60;0.60;;;;;;;0.48;100.00;98853.13;29373;208;63004;-61
2023/02/06 00:14:38;;;;;;;0.60;0.60;;;;;;;0.48;100.00;98855.78;29373;230;63015;-56
2023/02/06 00:15:10;;;;;;;0.60;0.60;;;;;;;0.48;100.00;98860.28;29373;234;63005;-56
2023/02/06 00:15:41;;;;;;;0.70;0.70;;;;;;;0.48;100.00;98860.28;29373;265;63009;-56
2023/02/06 00:16:27;;;;;;;0.60;0.60;;;;;;;0.46;100.00;98856.97;29371;302;64009;-56
2023/02/06 00:16:59;;;;;;;0.60;0.60;;;;;;;0.45;100.00;98858.81;29371;303;64013;-56
2023/02/06 00:17:35;;;;;;;1.83;1.73;;;;;;;0.43;100.00;98858.16;29373;203;63011;-56
2023/02/06 00:18:10;;;;;;;0.60;0.60;;;;;;;0.42;100.00;98861.00;29373;219;63009;-56
2023/02/06 00:18:41;;;;;;;1.17;1.08;;;;;;;0.39;100.00;98859.53;29373;276;63012;-56
2023/02/06 00:19:12;;;;;;;0.60;0.60;;;;;;;0.37;100.00;98853.53;29373;219;63023;-56
2023/02/06 00:19:45;;;;;;;0.60;0.60;;;;;;;0.36;100.00;98857.22;29373;202;63004;-56
2023/02/06 00:20:17;;;;;;;0.70;0.70;;;;;;;0.38;100.00;98857.87;29373;254;63009;-55
2023/02/06 00:20:48;;;;;;;0.60;0.60;;;;;;;0.39;100.00;98862.19;29373;368;63004;-56
2023/02/06 00:21:23;;;;;;;0.60;0.60;;;;;;;0.41;100.00;98854.84;29373;301;63017;-56
2023/02/06 00:21:54;;;;;;;0.75;0.75;;;;;;;0.43;100.00;98857.34;29373;259;63005;-56
2023/02/06 00:22:25;;;;;;;0.60;0.60;;;;;;;0.43;100.00;98858.16;29371;247;64014;-56
2023/02/06 00:22:57;;;;;;;0.60;0.60;;;;;;;0.43;100.00;98862.66;29373;219;63005;-56
2023/02/06 00:23:31;;;;;;;0.65;0.65;;;;;;;0.42;100.00;98863.69;29373;202;63009;-56
2023/02/06 00:24:03;;;;;;;0.60;0.60;;;;;;;0.42;100.00;98856.50;29373;313;63005;-56
2023/02/06 00:24:35;;;;;;;0.60;0.60;;;;;;;0.42;100.00;98855.66;29373;224;63009;-56
2023/02/06 00:25:07;;;;;;;0.60;0.60;;;;;;;0.41;100.00;98862.84;29373;227;63005;-56
2023/02/06 00:25:38;;;;;;;0.60;0.60;;;;;;;0.40;100.00;98863.03;29373;286;63009;-56
2023/02/06 00:26:10;;;;;;;0.60;0.60;;;;;;;0.41;100.00;98860.19;29373;199;63004;-56
2023/02/06 00:26:42;;;;;;;0.60;0.60;;;;;;;0.41;100.00;98868.19;29373;247;63004;-60
2023/02/06 00:27:13;;;;;;;0.60;0.60;;;;;;;0.41;100.00;98860.19;29373;205;63004;-56
2023/02/06 00:27:44;;;;;;;0.60;0.60;;;;;;;0.41;100.00;98860.19;29371;223;64013;-56
2023/02/06 00:28:16;;;;;;;0.60;0.60;;;;;;;0.40;100.00;98858.50;29373;256;63004;-56
2023/02/06 00:28:47;;;;;;;0.60;0.60;;;;;;;0.39;100.00;98862.19;29371;202;64013;-55
2023/02/06 00:29:19;;;;;;;0.60;0.60;;;;;;;0.39;100.00;98867.53;29373;215;63016;-56
2023/02/06 00:29:50;;;;;;;0.60;0.60;;;;;;;0.37;100.00;98864.22;29373;220;63009;-57
2023/02/06 00:31:33;;;;;;;0.67;0.67;;;;;;;0.39;100.00;98856.84;88174;202;64004;-55
2023/02/06 00:32:05;;;;;;;0.60;0.60;;;;;;;0.39;100.00;98854.19;29394;292;64009;-55
2023/02/06 00:32:36;;;;;;;0.60;0.60;;;;;;;0.38;100.00;98855.19;29373;248;63005;-55
2023/02/06 00:33:07;;;;;;;0.60;0.60;;;;;;;0.38;100.00;98857.03;29373;196;63009;-55
2023/02/06 00:33:38;;;;;;;1.65;1.58;;;;;;;0.37;100.00;98848.19;29373;196;63005;-55
2023/02/06 00:34:10;;;;;;;0.60;0.60;;;;;;;0.38;100.00;98855.19;29373;197;63009;-55
2023/02/06 00:34:41;;;;;;;0.60;0.60;;;;;;;0.38;100.00;98854.38;29373;237;63004;-55
2023/02/06 00:35:13;;;;;;;0.60;0.60;;;;;;;0.36;100.00;98854.53;29373;236;63027;-55
2023/02/06 00:35:45;;;;;;;0.60;0.60;;;;;;;0.35;100.00;98844.88;29371;197;64009;-55
2023/02/06 00:36:16;;;;;;;0.60;0.60;;;;;;;0.34;100.00;98853.94;29373;217;63009;-54
2023/02/06 00:36:47;;;;;;;0.60;0.60;;;;;;;0.32;100.00;98851.44;29373;209;63004;-55
2023/02/06 00:37:18;;;;;;;0.68;0.68;;;;;;;0.32;100.00;98853.28;29373;196;63008;-55
2023/02/06 00:37:49;;;;;;;0.60;0.60;;;;;;;0.33;100.00;98852.25;29373;347;63005;-55
2023/02/06 00:38:21;;;;;;;0.60;0.60;;;;;;;0.35;100.00;98844.06;29373;213;63009;-55
2023/02/06 00:38:52;;;;;;;0.60;0.60;;;;;;;0.37;100.00;98848.19;29373;356;63005;-55
2023/02/06 00:39:25;;;;;;;0.60;0.60;;;;;;;0.37;100.00;98853.53;29373;197;63009;-55
2023/02/06 00:39:56;;;;;;;0.60;0.60;;;;;;;0.38;100.00;98851.69;29373;221;63005;-55
2023/02/06 00:40:27;;;;;;;0.70;0.70;;;;;;;0.40;100.00;98849.69;29373;307;63009;-55
2023/02/06 00:40:59;;;;;;;0.60;0.60;;;;;;;0.37;100.00;98853.53;29371;214;64009;-55
2023/02/06 00:41:30;;;;;;;0.60;0.60;;;;;;;0.37;100.00;98858.03;29371;318;64013;-54
2023/02/06 00:42:02;;;;;;;0.60;0.60;;;;;;;0.36;100.00;98849.19;29373;305;63004;-55
2023/02/06 00:42:33;;;;;;;0.60;0.60;;;;;;;0.38;100.00;98857.03;29373;245;63015;-57
2023/02/06 00:43:05;;;;;;;0.60;0.60;;;;;;;0.37;100.00;98853.53;29373;298;63004;-57
2023/02/06 00:43:37;;;;;;;0.60;0.60;;;;;;;0.38;100.00;98855.19;29372;196;63009;-56
2023/02/06 00:44:08;;;;;;;0.60;0.60;;;;;;;0.37;100.00;98856.22;29373;263;63004;-56
2023/02/06 00:44:39;;;;;;;0.60;0.60;;;;;;;0.37;100.00;98852.69;29373;229;63008;-57
2023/02/06 00:45:11;;;;;;;4.72;4.32;;;;;;;0.38;100.00;98855.19;29373;217;63005;-55
2023/02/06 00:45:42;;;;;;;0.60;0.60;;;;;;;0.39;100.00;98840.00;29373;295;63009;-55
2023/02/06 00:46:13;;;;;;;0.60;0.60;;;;;;;0.40;100.00;98847.84;29373;335;63005;-56
2023/02/06 00:46:44;;;;;;;1.77;1.77;;;;;;;0.40;100.00;98844.34;29371;240;64013;-56
2023/02/06 00:47:17;;;;;;;0.60;0.60;;;;;;;0.40;100.00;98845.16;29373;320;63005;-57
2023/02/06 00:47:48;;;;;;;0.60;0.60;;;;;;;0.41;100.00;98854.00;29373;223;63009;-56
2023/02/06 00:48:19;;;;;;;0.60;0.60;;;;;;;0.40;100.00;98847.84;29373;355;63010;-56
2023/02/06 00:48:51;;;;;;;0.60;0.60;;;;;;;0.42;100.00;98839.66;29373;279;63009;-57
2023/02/06 00:49:22;;;;;;;0.60;0.60;;;;;;;0.41;100.00;98843.31;29371;237;64009;-56
2023/02/06 00:49:54;;;;;;;0.60;0.60;;;;;;;0.42;100.00;98845.81;29373;209;63009;-56
2023/02/06 00:50:25;;;;;;;4.57;4.22;;;;;;;0.45;100.00;98849.97;29373;197;63004;-56
2023/02/06 00:50:56;;;;;;;0.60;0.60;;;;;;;0.46;100.00;98847.12;29373;227;63008;-60
2023/02/06 00:51:28;;;;;;;0.60;0.60;;;;;;;0.48;100.00;98855.78;29373;272;63004;-56
2023/02/06 00:51:59;;;;;;;0.70;0.70;;;;;;;0.48;100.00;98845.09;29373;261;63009;-56
2023/02/06 00:52:30;;;;;;;0.60;0.60;;;;;;;0.47;100.00;98848.78;29373;212;63005;-60
2023/02/06 00:53:04;;;;;;;0.60;0.60;;;;;;;0.42;100.00;98851.16;29373;227;63009;-56
2023/02/06 00:53:36;;;;;;;0.60;0.60;;;;;;;0.40;100.00;98847.00;29373;214;63005;-55
2023/02/06 00:54:08;;;;;;;0.68;0.68;;;;;;;0.38;100.00;98841.84;29373;197;63009;-56
2023/02/06 00:54:39;;;;;;;0.60;0.60;;;;;;;0.38;100.00;98844.50;29371;317;64009;-57
2023/02/06 00:55:11;;;;;;;0.60;0.60;;;;;;;0.38;100.00;98849.84;29373;317;63009;-56
2023/02/06 00:55:42;;;;;;;0.85;0.85;;;;;;;0.38;100.00;98841.84;29373;275;63005;-56
2023/02/06 00:56:14;;;;;;;0.60;0.60;;;;;;;0.39;100.00;98845.34;29373;354;63009;-56
2023/02/06 00:56:45;;;;;;;0.70;0.70;;;;;;;0.38;100.00;98839.16;29373;263;63004;-56
2023/02/06 00:57:17;;;;;;;0.57;0.57;;;;;;;0.39;100.00;98840.84;29373;214;63009;-56
2023/02/06 00:57:48;;;;;;;0.60;0.60;;;;;;;0.40;100.00;98842.50;29373;258;63004;-55
2023/02/06 00:58:19;;;;;;;0.60;0.60;;;;;;;0.40;100.00;98839.81;29373;224;63009;-56
2023/02/06 00:58:50;;;;;;;0.60;0.60;;;;;;;0.41;100.00;98841.47;29373;210;63004;-60
2023/02/06 00:59:21;;;;;;;0.60;0.60;;;;;;;0.39;100.00;98840.84;29373;222;63018;-56
2023/02/06 00:59:54;;;;;;;0.60;0.60;;;;;;;0.37;100.00;98842.84;29371;215;64009;-56
2023/02/06 01:00:25;;;;;;;0.60;0.60;;;;;;;0.37;100.00;98848.19;29373;227;63009;-56
2023/02/06 01:00:56;;;;;;;0.60;0.60;;;;;;;0.37;100.00;98848.19;29373;302;63005;-56
2023/02/06 01:01:28;;;;;;;0.60;0.60;;;;;;;0.37;100.00;98845.53;29373;269;63012;-56
2023/02/06 01:01:59;;;;;;;0.60;0.60;;;;;;;0.36;100.00;98843.88;29371;203;64009;-57
2023/02/06 01:02:31;;;;;;;0.60;0.60;;;;;;;0.36;100.00;98848.38;29373;231;63009;-56
2023/02/06 01:03:02;;;;;;;2.03;1.92;;;;;;;0.37;100.00;98852.69;29373;220;63005;-56
2023/02/06 01:03:33;;;;;;;0.68;0.68;;;;;;;0.37;100.00;98848.19;29373;222;63009;-57
2023/02/06 01:04:05;;;;;;;0.60;0.60;;;;;;;0.37;100.00;98848.19;29373;226;63008;-56
2023/02/06 01:04:36;;;;;;;0.60;0.60;;;;;;;0.35;100.00;98847.53;29371;221;64013;-56
2023/02/06 01:05:08;;;;;;;0.60;0.60;;;;;;;0.35;100.00;98854.75;29373;258;63004;-57
2023/02/06 01:05:39;;;;;;;0.70;0.70;;;;;;;0.36;100.00;98843.03;29373;277;63009;-56
2023/02/06 01:06:10;;;;;;;0.60;0.60;;;;;;;0.36;100.00;98846.53;29373;232;63004;-56
2023/02/06 01:06:43;;;;;;;0.60;0.60;;;;;;;0.37;100.00;98845.53;29373;245;63008;-57
2023/02/06 01:07:17;;;;;;;0.60;0.60;;;;;;;0.37;100.00;98839.34;29371;214;64009;-56
2023/02/06 01:07:48;;;;;;;0.60;0.60;;;;;;;0.38;100.00;98841.84;29373;279;63009;-57
2023/02/06 01:08:20;;;;;;;0.60;0.60;;;;;;;0.39;100.00;98842.66;29373;216;63005;-57
2023/02/06 01:08:51;;;;;;;0.60;0.60;;;;;;;0.39;100.00;98842.66;29373;226;63009;-56
2023/02/06 01:09:22;;;;;;;0.60;0.60;;;;;;;0.39;100.00;98840.00;29373;209;63005;-56
2023/02/06 01:09:53;;;;;;;0.60;0.60;;;;;;;0.36;100.00;98841.19;29373;317;63009;-56
2023/02/06 01:10:26;;;;;;;0.60;0.60;;;;;;;0.36;100.00;98841.19;29373;197;63005;-57
2023/02/06 01:10:57;;;;;;;0.60;0.60;;;;;;;0.34;100.00;98843.25;29372;280;64009;-56
2023/02/06 01:11:28;;;;;;;0.60;0.60;;;;;;;0.35;100.00;98844.06;29373;212;63004;-56
2023/02/06 01:11:59;;;;;;;0.60;0.60;;;;;;;0.36;100.00;98849.19;29373;230;63009;-56
2023/02/06 01:12:33;;;;;;;0.60;0.60;;;;;;;0.37;100.00;98848.19;29371;214;64009;-56
2023/02/06 01:13:04;;;;;;;0.60;0.60;;;;;;;0.39;100.00;98845.34;29373;249;63015;-56
2023/02/06 01:13:36;;;;;;;0.60;0.60;;;;;;;0.37;100.00;98842.84;29373;328;63004;-56
2023/02/06 01:14:08;;;;;;;0.70;0.70;;;;;;;0.37;100.00;98845.53;29373;240;63008;-56
2023/02/06 01:14:39;;;;;;;0.60;0.60;;;;;;;0.36;100.00;98851.03;29372;202;64005;-56
2023/02/06 01:15:12;;;;;;;0.60;0.60;;;;;;;0.33;100.00;98846.91;29373;273;63009;-55
2023/02/06 01:15:43;;;;;;;0.60;0.60;;;;;;;0.33;100.00;98846.91;29373;199;63005;-55
2023/02/06 01:16:20;;;;;;;3.17;3.08;;;;;;;0.32;100.00;98835.41;29373;275;63009;-55
2023/02/06 01:16:51;;;;;;;0.60;0.60;;;;;;;0.34;100.00;98843.25;29373;307;63005;-56
2023/02/06 01:17:22;;;;;;;0.60;0.60;;;;;;;0.34;100.00;98840.56;29373;217;63009;-56
2023/02/06 01:17:54;;;;;;;0.70;0.70;;;;;;;0.36;100.00;98843.88;29371;313;64009;-55
2023/02/06 01:18:25;;;;;;;0.60;0.60;;;;;;;0.37;100.00;98837.50;29373;216;63009;-56
2023/02/06 01:18:56;;;;;;;0.60;0.60;;;;;;;0.38;100.00;98844.50;29373;304;63004;-56
2023/02/06 01:19:28;;;;;;;0.60;0.60;;;;;;;0.38;100.00;98844.50;29373;204;63009;-56
2023/02/06 01:19:59;;;;;;;0.60;0.60;;;;;;;0.39;100.00;98851.50;29373;334;63004;-56
2023/02/06 01:20:31;;;;;;;0.60;0.60;;;;;;;0.38;100.00;98852.53;29373;294;63009;-57
2023/02/06 01:21:16;;;;;;;0.60;0.60;;;;;;;0.33;100.00;98858.44;29373;336;63004;-55
2023/02/06 01:21:47;;;;;;;0.60;0.60;;;;;;;0.33;100.00;98852.25;29373;215;63008;-56
2023/02/06 01:22:18;;;;;;;0.60;0.60;;;;;;;0.32;100.00;98855.94;29373;202;63005;-56
2023/02/06 01:22:50;;;;;;;0.60;0.60;;;;;;;0.32;100.00;98855.94;29373;232;63009;-56
2023/02/06 01:23:22;;;;;;;0.60;0.60;;;;;;;0.31;100.00;98859.63;29371;272;64009;-56
2023/02/06 01:23:54;;;;;;;0.60;0.60;;;;;;;0.31;100.00;98856.94;29371;223;64013;-56
2023/02/06 01:24:25;;;;;;;0.60;0.60;;;;;;;0.32;100.00;98853.28;29373;305;63000;-56
2023/02/06 01:24:56;;;;;;;0.60;0.60;;;;;;;0.35;100.00;98854.75;29373;199;63009;-56
2023/02/06 01:25:28;;;;;;;0.62;0.62;;;;;;;0.36;100.00;98859.88;29373;284;63005;-55
2023/02/06 01:26:03;;;;;;;0.65;0.65;;;;;;;0.38;100.00;98855.19;29373;314;63009;-56
2023/02/06 01:26:34;;;;;;;0.60;0.60;;;;;;;0.41;100.00;98854.84;29373;271;63011;-56
2023/02/06 01:27:05;;;;;;;2.60;2.50;;;;;;;0.44;100.00;98853.66;29373;218;63009;-56
2023/02/06 01:27:37;;;;;;;0.60;0.60;;;;;;;0.45;100.00;98853.47;29373;222;63004;-56
2023/02/06 01:28:09;;;;;;;0.60;0.60;;;;;;;0.47;100.00;98847.94;29373;216;63009;-56
2023/02/06 01:28:42;;;;;;;0.60;0.60;;;;;;;0.47;100.00;98856.78;29373;288;63004;-56
2023/02/06 01:29:13;;;;;;;0.60;0.60;;;;;;;0.48;100.00;98857.63;29371;255;64013;-57
2023/02/06 01:29:44;;;;;;;0.60;0.60;;;;;;;0.47;100.00;98855.97;29373;268;63005;-56
2023/02/06 01:30:15;;;;;;;0.60;0.60;;;;;;;0.46;100.00;98860.47;29373;292;63027;-56
2023/02/06 01:30:47;;;;;;;0.60;0.60;;;;;;;0.44;100.00;98850.97;29373;225;63005;-55
2023/02/06 01:31:25;;;;;;;0.60;0.60;;;;;;;0.43;100.00;98852.81;29371;296;64013;-55
2023/02/06 01:32:03;;;;;;;0.60;0.60;;;;;;;0.44;100.00;98849.13;29373;213;63005;-56
2023/02/06 01:32:39;;;;;;;0.60;0.60;;;;;;;0.45;100.00;98853.47;29373;335;63009;-56
2023/02/06 01:33:10;;;;;;;0.60;0.60;;;;;;;0.46;100.00;98844.44;29373;222;63009;-56
2023/02/06 01:33:43;;;;;;;1.15;1.15;;;;;;;0.46;100.00;98852.47;29373;216;63013;-56
2023/02/06 01:34:14;;;;;;;0.60;0.60;;;;;;;0.47;100.00;98848.78;29373;238;63008;-56
2023/02/06 01:34:45;;;;;;;0.60;0.60;;;;;;;0.47;100.00;98848.78;29373;224;63004;-56
2023/02/06 01:35:20;;;;;;;0.60;0.60;;;;;;;0.48;100.00;98854.94;29373;243;63004;-56
2023/02/06 01:35:55;;;;;;;3.00;2.75;;;;;;;0.49;100.00;98857.44;29373;249;63008;-57
2023/02/06 01:36:31;;;;;;;0.60;0.60;;;;;;;0.47;100.00;98851.44;29371;205;64008;-56
2023/02/06 01:37:02;;;;;;;0.60;0.60;;;;;;;0.48;100.00;98855.78;29373;245;63014;-56
2023/02/06 01:37:34;;;;;;;9.38;9.00;;;;;;;0.48;100.00;98858.44;29370;213;65001;-56
2023/02/06 01:38:05;;;;;;;0.60;0.60;;;;;;;0.49;100.00;98859.28;29373;216;63016;-56
2023/02/06 01:38:38;;;;;;;0.60;0.60;;;;;;;0.49;100.00;98857.44;29373;210;63005;-56
2023/02/06 01:39:09;;;;;;;0.60;0.60;;;;;;;0.50;100.00;98863.63;29373;219;63009;-57
2023/02/06 01:39:41;;;;;;;0.60;0.60;;;;;;;0.48;100.00;98858.44;29373;228;63005;-57
2023/02/06 01:40:15;;;;;;;0.60;0.60;;;;;;;0.47;100.00;98853.28;29373;319;63009;-56
2023/02/06 01:40:46;;;;;;;0.60;0.60;;;;;;;0.47;100.00;98864.81;29373;270;63004;-56
2023/02/06 01:41:21;;;;;;;0.60;0.60;;;;;;;0.48;100.00;98861.12;29371;197;64013;-56
2023/02/06 01:41:53;;;;;;;0.60;0.60;;;;;;;0.50;100.00;98853.75;29373;244;63004;-56
2023/02/06 01:42:24;;;;;;;0.60;0.60;;;;;;;0.50;100.00;98859.09;29373;330;63004;-56
2023/02/06 01:42:55;;;;;;;0.60;0.60;;;;;;;0.49;100.00;98854.78;29371;260;64009;-56
2023/02/06 01:43:32;;;;;;;0.60;0.60;;;;;;;0.49;100.00;98857.44;29373;347;63008;-56
2023/02/06 01:44:14;;;;;;;0.60;0.60;;;;;;;0.50;100.00;98856.44;29371;203;64009;-56
2023/02/06 01:44:45;;;;;;;0.60;0.60;;;;;;;0.51;100.00;98858.09;29373;285;63009;-56
2023/02/06 01:45:45;;;;;;;0.60;0.60;;;;;;;0.51;100.00;98850.09;29373;345;63005;-56
2023/02/06 01:46:16;;;;;;;0.60;0.60;;;;;;;0.53;100.00;98852.56;29373;231;63009;-57
2023/02/06 01:46:57;;;;;;;1.20;1.20;;;;;;;0.54;100.00;98851.56;29373;349;63005;-57
2023/02/06 01:47:28;;;;;;;0.70;0.70;;;;;;;0.54;100.00;98847.06;29355;259;125009;-56
2023/02/06 01:48:05;;;;;;;0.60;0.60;;;;;;;0.54;100.00;98854.22;29395;331;63000;-56
2023/02/06 01:48:49;;;;;;;0.60;0.60;;;;;;;0.52;100.00;98851.75;29373;231;63009;-56
2023/02/06 01:49:36;;;;;;;0.60;0.60;;;;;;;0.51;100.00;98839.41;29371;290;64009;-55
2023/02/06 01:50:08;;;;;;;0.70;0.70;;;;;;;0.50;100.00;98844.91;29373;243;63009;-55
2023/02/06 01:50:43;;;;;;;0.60;0.60;;;;;;;0.50;100.00;98843.06;29373;199;63004;-55
2023/02/06 01:51:18;;;;;;;0.60;0.60;;;;;;;0.51;100.00;98850.09;29373;294;63008;-56
2023/02/06 01:51:53;;;;;;;0.60;0.60;;;;;;;0.54;100.00;98847.06;29373;209;63005;-55
2023/02/06 01:52:29;;;;;;;0.60;0.60;;;;;;;0.54;100.00;98839.03;29373;262;63009;-56
2023/02/06 01:53:05;;;;;;;0.60;0.60;;;;;;;0.52;100.00;98846.41;29373;274;63005;-56
2023/02/06 01:53:37;;;;;;;0.60;0.60;;;;;;;0.48;100.00;98839.75;29373;225;63009;-55
2023/02/06 01:54:10;;;;;;;0.60;0.60;;;;;;;0.44;100.00;98843.78;29373;203;63005;-55
2023/02/06 01:54:45;;;;;;;0.70;0.70;;;;;;;0.44;100.00;98838.47;29371;253;64013;-55
2023/02/06 01:55:17;;;;;;;0.75;0.75;;;;;;;0.42;100.00;98840.47;29373;208;63005;-55
2023/02/06 01:55:51;;;;;;;0.60;0.60;;;;;;;0.41;100.00;98838.81;29373;207;63009;-56
2023/02/06 01:56:25;;;;;;;0.70;0.70;;;;;;;0.40;100.00;98829.13;29373;249;63004;-55
2023/02/06 01:57:01;;;;;;;0.70;0.70;;;;;;;0.41;100.00;98840.66;29373;281;63009;-55
2023/02/06 01:57:33;;;;;;;0.60;0.60;;;;;;;0.42;100.00;98843.16;29371;250;64001;-55
2023/02/06 01:58:06;;;;;;;0.70;0.70;;;;;;;0.42;100.00;98834.31;29373;307;63008;-55
2023/02/06 01:58:43;;;;;;;1.15;1.15;;;;;;;0.42;100.00;98834.31;29373;256;63004;-56
2023/02/06 01:59:15;;;;;;;0.60;0.60;;;;;;;0.40;100.00;98839.81;29373;204;63005;-56
2023/02/06 01:59:57;;;;;;;3.95;3.85;;;;;;;0.41;100.00;98843.31;29373;296;63005;-56
2023/02/06 02:00:28;;;;;;;0.60;0.60;;;;;;;0.39;100.00;98838.16;29373;197;63009;-55
2023/02/06 02:01:00;;;;;;;0.60;0.60;;;;;;;0.38;100.00;98839.16;29373;197;63005;-56
2023/02/06 02:01:32;;;;;;;0.60;0.60;;;;;;;0.33;100.00;98830.91;29371;346;64013;-55
2023/02/06 02:02:03;;;;;;;0.60;0.60;;;;;;;0.36;100.00;98840.38;29373;197;63005;-55
2023/02/06 02:02:37;;;;;;;0.70;0.70;;;;;;;0.36;100.00;98835.84;29373;198;63009;-55
2023/02/06 02:03:09;;;;;;;0.60;0.60;;;;;;;0.37;100.00;98840.19;29373;296;63004;-55
2023/02/06 02:03:45;;;;;;;0.60;0.60;;;;;;;0.40;100.00;98841.66;29373;196;63009;-55
2023/02/06 02:04:21;;;;;;;0.60;0.60;;;;;;;0.40;100.00;98842.50;29371;227;64009;-56
2023/02/06 02:04:55;;;;;;;0.60;0.60;;;;;;;0.40;100.00;98831.81;29373;212;63004;-55
2023/02/06 02:05:26;;;;;;;0.52;0.52;;;;;;;0.41;100.00;98843.31;29373;339;63004;-56
2023/02/06 02:06:05;;;;;;;0.60;0.60;;;;;;;0.41;100.00;98844.16;29373;260;63008;-55
2023/02/06 02:06:36;;;;;;;0.60;0.60;;;;;;;0.42;100.00;98843.16;29373;222;63005;-56
2023/02/06 02:07:17;;;;;;;0.70;0.70;;;;;;;0.43;100.00;98847.47;29373;318;63009;-56
2023/02/06 02:08:03;;;;;;;0.60;0.60;;;;;;;0.40;100.00;98847.00;29373;263;63005;-56
2023/02/06 02:08:41;;;;;;;0.60;0.60;;;;;;;0.35;100.00;98849.41;29373;219;63009;-56
2023/02/06 02:09:13;;;;;;;1.23;1.23;;;;;;;0.32;100.00;98846.09;29373;197;63005;-56
2023/02/06 02:09:45;;;;;;;0.60;0.60;;;;;;;0.32;100.00;98839.91;29371;223;64013;-56
2023/02/06 02:10:16;;;;;;;0.60;0.60;;;;;;;0.33;100.00;98857.59;29373;206;63005;-56
2023/02/06 02:10:47;;;;;;;0.60;0.60;;;;;;;0.33;100.00;98846.91;29373;353;63026;-55
2023/02/06 02:11:27;;;;;;;0.60;0.60;;;;;;;0.35;100.00;98852.88;29373;202;63004;-56
2023/02/06 02:11:59;;;;;;;0.60;0.60;;;;;;;0.36;100.00;98851.88;29373;264;63009;-56
2023/02/06 02:12:30;;;;;;;0.60;0.60;;;;;;;0.38;100.00;98849.03;29373;278;63004;-58
2023/02/06 02:13:02;;;;;;;0.68;0.68;;;;;;;0.38;100.00;98849.03;29373;199;63009;-56
2023/02/06 02:13:35;;;;;;;0.60;0.60;;;;;;;0.40;100.00;98849.69;29373;286;63004;-56
2023/02/06 02:14:11;;;;;;;0.60;0.60;;;;;;;0.40;100.00;98842.50;29371;222;64014;-56
2023/02/06 02:14:44;;;;;;;0.60;0.60;;;;;;;0.39;100.00;98851.50;29373;267;63005;-56
2023/02/06 02:15:15;;;;;;;0.60;0.60;;;;;;;0.41;100.00;98846.00;29373;245;63018;-54
2023/02/06 02:16:01;;;;;;;0.60;0.60;;;;;;;0.40;100.00;98847.00;29373;197;63009;-56
2023/02/06 02:17:05;;;;;;;0.60;0.60;;;;;;;0.39;100.00;98851.50;29373;203;63009;-55
2023/02/06 02:18:08;;;;;;;0.68;0.68;;;;;;;0.40;100.00;98850.50;29373;241;63005;-55
2023/02/06 02:19:37;;;;;;;0.60;0.60;;;;;;;0.41;100.00;98852.16;29373;261;63009;-56
2023/02/06 02:21:00;;;;;;;0.70;0.70;;;;;;;0.42;100.00;98848.47;29371;220;64009;-56
2023/02/06 02:22:32;;;;;;;0.60;0.60;;;;;;;0.40;100.00;98845.16;29395;218;63008;-56
2023/02/06 02:23:32;;;;;;;0.60;0.60;;;;;;;0.39;100.00;98840.84;29395;204;63005;-55
2023/02/06 02:24:41;;;;;;;0.60;0.60;;;;;;;0.39;100.00;98843.50;29371;258;64009;-55
2023/02/06 02:26:00;;;;;;;0.60;0.60;;;;;;;0.41;100.00;98849.50;29373;215;63009;-56
2023/02/06 02:27:08;;;;;;;0.60;0.60;;;;;;;0.44;100.00;98846.47;29373;207;63004;-56
2023/02/06 02:28:28;;;;;;;0.70;0.70;;;;;;;0.45;100.00;98840.13;29373;197;63004;-55
2023/02/06 02:29:38;;;;;;;0.70;0.70;;;;;;;0.41;100.00;98852.16;29373;285;63008;-55
2023/02/06 02:30:48;;;;;;;0.60;0.60;;;;;;;0.41;100.00;98846.81;29371;205;64009;-56
2023/02/06 02:32:08;;;;;;;0.70;0.70;;;;;;;0.39;100.00;98848.00;29373;226;63005;-55
2023/02/06 02:33:13;;;;;;;0.70;0.70;;;;;;;0.39;100.00;98846.19;29373;197;63005;-56
2023/02/06 02:34:34;;;;;;;0.60;0.60;;;;;;;0.40;100.00;98842.50;29373;218;63009;-56
2023/02/06 02:35:49;;;;;;;0.60;0.60;;;;;;;0.40;100.00;98847.84;29373;295;63004;-56
2023/02/06 02:36:50;;;;;;;0.60;0.60;;;;;;;0.43;100.00;98850.16;29371;202;64013;-60
2023/02/06 02:37:51;;;;;;;0.60;0.60;;;;;;;0.43;100.00;98844.81;29395;197;63005;-55
2023/02/06 02:39:02;;;;;;;4.45;4.20;;;;;;;0.51;100.00;98849.25;29377;233;125009;-55
2023/02/06 02:39:54;;;;;;;0.60;0.60;;;;;;;0.52;100.00;98842.91;29373;206;63005;-56
2023/02/06 02:40:54;;;;;;;0.70;0.70;;;;;;;0.51;100.00;98847.41;29395;233;63009;-56
2023/02/06 02:41:44;;;;;;;0.60;0.60;;;;;;;0.49;100.00;98841.41;29394;204;64009;-55
2023/02/06 02:42:53;;;;;;;0.60;0.60;;;;;;;0.48;100.00;98842.44;29373;250;63013;-55
2023/02/06 02:43:53;;;;;;;0.60;0.60;;;;;;;0.51;100.00;98839.41;29373;250;63010;-56
2023/02/06 02:45:03;;;;;;;0.60;0.60;;;;;;;0.52;100.00;98837.56;29373;225;63009;-56
2023/02/06 02:45:47;;;;;;;0.60;0.60;;;;;;;0.46;100.00;98835.59;29373;207;63005;-56
2023/02/06 02:46:45;;;;;;;0.60;0.60;;;;;;;0.42;100.00;98840.47;29373;221;63009;-57
2023/02/06 02:47:22;;;;;;;0.60;0.60;;;;;;;0.40;100.00;98833.66;29371;247;64009;-56
2023/02/06 02:48:10;;;;;;;0.60;0.60;;;;;;;0.39;100.00;98842.66;29373;281;63009;-56
2023/02/06 02:48:45;;;;;;;0.70;0.70;;;;;;;0.37;100.00;98837.50;29373;285;63004;-56
2023/02/06 02:49:26;;;;;;;1.08;1.08;;;;;;;0.35;100.00;98831.53;29373;289;63009;-56
2023/02/06 02:50:08;;;;;;;0.60;0.60;;;;;;;0.33;100.00;98830.91;29395;202;63004;-56
2023/02/06 02:50:40;;;;;;;1.27;1.27;;;;;;;0.31;100.00;98824.91;29394;218;64008;-57
2023/02/06 02:51:13;;;;;;;0.70;0.70;;;;;;;0.30;100.00;98831.25;29373;213;63004;-56
2023/02/06 02:51:47;;;;;;;0.60;0.60;;;;;;;0.29;100.00;98825.09;29373;220;63009;-57
2023/02/06 02:52:19;;;;;;;3.92;3.70;;;;;;;0.28;100.00;98823.44;29371;230;64009;-57
2023/02/06 02:52:51;;;;;;;0.60;0.60;;;;;;;0.26;100.00;98830.78;29373;326;63009;-56
2023/02/06 02:53:22;;;;;;;0.70;0.70;;;;;;;0.25;100.00;98822.94;29373;209;63005;-56
2023/02/06 02:53:57;;;;;;;0.80;0.80;;;;;;;0.24;100.00;98821.28;29373;208;63009;-56